createdAt,value
2023-05-20T00:00:16.308Z,6.00
2023-05-20T00:02:48.864Z,5.87
2023-05-20T00:05:27.871Z,5.87
2023-05-20T00:07:57.717Z,5.60
2023-05-20T00:10:27.581Z,5.43
2023-05-20T00:12:58.707Z,6.43
2023-05-20T00:15:31.457Z,6.03
2023-05-20T00:18:05.626Z,6.20
2023-05-20T00:20:37.918Z,6.10
2023-05-20T00:23:10.082Z,6.00
2023-05-20T00:25:46.491Z,6.43
2023-05-20T00:28:21.469Z,6.30
2023-05-20T00:31:04.039Z,6.60
2023-05-20T00:33:40.304Z,6.77
2023-05-20T00:36:14.161Z,6.33
2023-05-20T00:38:48.198Z,6.90
2023-05-20T00:41:18.055Z,7.27
2023-05-20T00:43:50.574Z,7.07
2023-05-20T00:46:23.097Z,7.23
2023-05-20T00:48:57.380Z,6.50
2023-05-20T00:51:34.088Z,6.67
2023-05-20T00:54:04.074Z,6.40
2023-05-20T00:56:34.849Z,6.40
2023-05-20T00:59:08.439Z,6.30
2023-05-20T01:01:42.337Z,6.10
2023-05-20T01:04:23.354Z,6.00
2023-05-20T01:06:53.302Z,6.30
2023-05-20T01:09:24.627Z,6.93
2023-05-20T01:12:10.841Z,6.33
2023-05-20T01:14:49.716Z,6.53
2023-05-20T01:17:27.474Z,7.03
2023-05-20T01:20:12.534Z,6.10
2023-05-20T01:31:22.864Z,6.00
2023-05-20T01:34:10.510Z,6.80
2023-05-20T01:36:41.947Z,6.63
2023-05-20T01:39:24.501Z,6.47
2023-05-20T01:41:54.784Z,6.73
2023-05-20T01:44:27.377Z,6.00
2023-05-20T01:47:00.058Z,6.47
2023-05-20T01:49:36.618Z,6.32
2023-05-20T01:52:08.213Z,6.10
2023-05-20T01:54:41.126Z,5.90
2023-05-20T01:57:13.882Z,5.93
2023-05-20T01:59:51.872Z,6.07
2023-05-20T02:02:24.462Z,6.40
2023-05-20T02:07:44.736Z,5.77
2023-05-20T02:10:17.910Z,5.97
2023-05-20T02:18:53.599Z,5.40
2023-05-20T02:21:35.390Z,5.23
2023-05-20T02:35:30.608Z,4.77
2023-05-20T02:38:25.513Z,4.70
2023-05-20T02:41:04.742Z,5.03
2023-05-20T02:43:34.888Z,4.40
2023-05-20T02:46:07.906Z,4.70
2023-05-20T02:48:37.773Z,3.70
2023-05-20T02:51:08.312Z,4.70
2023-05-20T02:53:40.981Z,4.63
2023-05-20T02:56:19.642Z,3.87
2023-05-20T02:59:01.575Z,4.10
2023-05-20T03:01:31.651Z,3.83
2023-05-20T03:04:01.582Z,3.50
2023-05-20T03:06:34.420Z,3.90
2023-05-20T03:09:10.294Z,3.30
2023-05-20T03:11:46.503Z,3.50
2023-05-20T03:14:19.856Z,3.53
2023-05-20T03:16:50.913Z,3.30
2023-05-20T03:19:23.918Z,3.07
2023-05-20T03:21:53.952Z,3.27
2023-05-20T03:24:26.610Z,3.40
2023-05-20T03:26:59.543Z,2.90
2023-05-20T03:29:38.000Z,3.07
2023-05-20T03:32:11.901Z,2.93
2023-05-20T03:34:45.899Z,2.40
2023-05-20T03:37:20.895Z,2.60
2023-05-20T03:39:54.708Z,2.70
2023-05-20T03:42:30.809Z,2.97
2023-05-20T03:45:13.633Z,2.30
2023-05-20T03:47:45.910Z,2.80
2023-05-20T03:50:20.118Z,2.70
2023-05-20T03:52:52.159Z,2.50
2023-05-20T03:55:28.490Z,2.20
2023-05-20T03:57:59.238Z,2.60
2023-05-20T04:00:30.820Z,2.30
2023-05-20T04:03:04.993Z,2.53
2023-05-20T04:05:36.681Z,2.43
2023-05-20T04:08:07.771Z,2.63
2023-05-20T04:10:40.311Z,2.20
2023-05-20T04:13:10.161Z,2.47
2023-05-20T04:15:40.144Z,2.33
2023-05-20T04:18:14.111Z,2.63
2023-05-20T04:20:44.180Z,2.57
2023-05-20T04:23:15.637Z,2.40
2023-05-20T04:25:49.038Z,2.10
2023-05-20T04:28:19.152Z,2.40
2023-05-20T04:31:04.816Z,2.23
2023-05-20T04:33:48.052Z,2.60
2023-05-20T04:36:20.667Z,2.23
2023-05-20T04:38:50.567Z,2.43
2023-05-20T04:41:23.016Z,2.07
2023-05-20T04:43:53.756Z,2.10
2023-05-20T04:46:26.222Z,2.37
2023-05-20T04:49:05.120Z,2.10
2023-05-20T04:51:37.832Z,1.83
2023-05-20T04:54:10.697Z,1.70
2023-05-20T04:56:52.001Z,1.73
2023-05-20T04:59:24.254Z,1.83
2023-05-20T05:18:34.389Z,1.60
2023-05-20T05:21:07.205Z,1.50
2023-05-20T05:23:43.146Z,1.13
2023-05-20T05:26:14.542Z,1.43
2023-05-20T05:28:47.448Z,1.42
2023-05-20T05:31:18.420Z,1.60
2023-05-20T05:41:46.527Z,1.52
2023-05-20T05:44:17.181Z,1.65
2023-05-20T05:46:47.066Z,1.40
2023-05-20T05:49:20.853Z,1.60
2023-05-20T05:51:50.919Z,1.30
2023-05-20T05:54:21.270Z,1.42
2023-05-20T05:57:01.994Z,1.35
2023-05-20T05:59:31.866Z,1.40
2023-05-20T06:02:04.217Z,1.55
2023-05-20T06:04:34.114Z,1.30
2023-05-20T06:07:06.976Z,1.38
2023-05-20T06:09:43.859Z,1.50
2023-05-20T06:12:23.514Z,1.45
2023-05-20T06:15:02.488Z,1.42
2023-05-20T06:17:32.460Z,1.85
2023-05-20T06:20:04.756Z,1.40
2023-05-20T06:22:34.642Z,1.52
2023-05-20T06:25:07.151Z,1.70
2023-05-20T06:27:44.319Z,1.90
2023-05-20T06:30:22.497Z,1.50
2023-05-20T06:32:52.511Z,2.38
2023-05-20T06:35:22.480Z,1.90
2023-05-20T06:37:58.725Z,1.63
2023-05-20T06:40:28.998Z,1.67
2023-05-20T06:43:01.516Z,1.60
2023-05-20T06:45:35.721Z,1.70
2023-05-20T06:48:05.839Z,1.70
2023-05-20T06:50:35.747Z,1.58
2023-05-20T06:53:08.947Z,1.80
2023-05-20T06:55:40.169Z,1.77
2023-05-20T06:58:19.994Z,1.60
2023-05-20T07:03:37.462Z,1.55
2023-05-20T07:06:09.028Z,1.50
2023-05-20T07:08:40.088Z,1.42
2023-05-20T07:11:15.439Z,1.60
2023-05-20T07:13:53.754Z,1.67
2023-05-20T07:16:23.643Z,1.50
2023-05-20T07:18:55.423Z,1.60
2023-05-20T07:21:26.861Z,1.80
2023-05-20T07:23:59.361Z,1.55
2023-05-20T07:26:31.025Z,1.95
2023-05-20T07:29:04.300Z,1.63
2023-05-20T07:31:38.508Z,1.55
2023-05-20T07:34:10.587Z,1.70
2023-05-20T07:36:40.546Z,1.90
2023-05-20T07:39:24.664Z,1.60
2023-05-20T07:42:02.972Z,1.45
2023-05-20T07:44:35.496Z,1.65
2023-05-20T07:47:08.137Z,2.50
2023-05-20T07:49:42.991Z,1.63
2023-05-20T07:52:13.072Z,1.20
2023-05-20T07:54:47.070Z,1.48
2023-05-20T07:57:18.569Z,1.70
2023-05-20T07:59:53.540Z,1.33
2023-05-20T08:02:23.498Z,1.50
2023-05-20T08:04:53.407Z,1.48
2023-05-20T08:07:25.883Z,1.58
2023-05-20T08:09:59.094Z,1.40
2023-05-20T08:12:28.941Z,1.45
2023-05-20T08:15:01.392Z,1.20
2023-05-20T08:17:31.261Z,1.20
2023-05-20T08:20:01.192Z,1.20
2023-05-20T08:22:31.620Z,1.30
2023-05-20T08:25:01.464Z,1.58
2023-05-20T08:27:31.308Z,1.48
2023-05-20T08:30:04.587Z,1.20
2023-05-20T08:32:34.676Z,1.27
2023-05-20T08:35:04.644Z,1.00
2023-05-20T08:37:34.542Z,1.20
2023-05-20T08:40:05.429Z,1.30
2023-05-20T08:42:36.984Z,1.58
2023-05-20T08:45:14.024Z,1.02
2023-05-20T08:47:46.392Z,1.30
2023-05-20T08:50:17.523Z,1.88
2023-05-20T08:52:49.285Z,1.33
2023-05-20T08:55:27.420Z,1.50
2023-05-20T08:57:58.274Z,1.13
2023-05-20T09:00:30.791Z,1.40
2023-05-20T09:03:02.887Z,1.30
2023-05-20T09:05:33.176Z,1.50
2023-05-20T09:08:10.046Z,1.60
2023-05-20T09:10:40.974Z,1.70
2023-05-20T09:13:12.393Z,1.67
2023-05-20T09:15:44.897Z,1.42
2023-05-20T09:18:15.046Z,1.42
2023-05-20T09:20:45.189Z,1.63
2023-05-20T09:23:15.017Z,1.55
2023-05-20T09:25:44.920Z,1.70
2023-05-20T09:28:14.766Z,1.70
2023-05-20T09:30:47.256Z,1.88
2023-05-20T09:33:17.151Z,1.50
2023-05-20T09:35:50.006Z,1.80
2023-05-20T09:38:20.834Z,1.88
2023-05-20T09:40:51.639Z,2.33
2023-05-20T09:43:21.899Z,2.28
2023-05-20T09:46:07.607Z,1.80
2023-05-20T09:48:39.372Z,2.13
2023-05-20T09:51:14.019Z,1.67
2023-05-20T09:53:45.537Z,1.88
2023-05-20T09:56:15.743Z,1.80
2023-05-20T09:58:49.769Z,1.92
2023-05-20T10:01:32.625Z,2.30
2023-05-20T10:04:09.709Z,1.80
2023-05-20T10:06:57.509Z,1.83
2023-05-20T10:09:42.243Z,2.10
2023-05-20T10:12:25.434Z,2.35
2023-05-20T10:15:09.061Z,1.80
2023-05-20T10:17:50.509Z,1.80
2023-05-20T10:20:23.134Z,2.08
2023-05-20T10:23:01.023Z,2.38
2023-05-20T10:25:32.537Z,2.08
2023-05-20T10:28:12.035Z,2.17
2023-05-20T10:30:54.851Z,2.00
2023-05-20T10:33:47.375Z,1.80
2023-05-20T10:36:27.993Z,2.38
2023-05-20T10:38:59.558Z,1.90
2023-05-20T10:41:31.583Z,2.17
2023-05-20T10:44:07.539Z,1.98
2023-05-20T10:47:00.021Z,2.13
2023-05-20T10:49:37.854Z,2.42
2023-05-20T10:52:10.308Z,2.58
2023-05-20T10:54:48.635Z,2.08
2023-05-20T10:57:23.157Z,2.13
2023-05-20T10:59:53.280Z,2.25
2023-05-20T11:02:27.358Z,2.25
2023-05-20T11:05:00.107Z,2.42
2023-05-20T11:07:30.743Z,2.70
2023-05-20T11:10:01.121Z,2.22
2023-05-20T11:12:31.350Z,2.58
2023-05-20T11:15:01.286Z,2.53
2023-05-20T11:17:32.625Z,1.95
2023-05-20T11:20:10.010Z,2.22
2023-05-20T11:22:42.802Z,2.95
2023-05-20T11:25:13.874Z,2.60
2023-05-20T11:27:43.837Z,2.95
2023-05-20T11:30:19.916Z,2.65
2023-05-20T11:33:02.558Z,2.40
2023-05-20T11:35:47.780Z,3.10
2023-05-20T11:38:21.951Z,3.08
2023-05-20T11:40:55.886Z,2.90
2023-05-20T11:43:30.325Z,3.38
2023-05-20T11:46:01.423Z,3.03
2023-05-20T11:48:34.367Z,3.38
2023-05-20T11:51:11.556Z,2.97
2023-05-20T11:53:44.086Z,3.42
2023-05-20T11:56:14.305Z,3.40
2023-05-20T11:58:47.262Z,3.25
2023-05-20T12:01:22.735Z,3.60
2023-05-20T12:03:53.410Z,3.70
2023-05-20T12:06:25.987Z,3.33
2023-05-20T12:08:55.826Z,3.85
2023-05-20T12:11:26.067Z,3.92
2023-05-20T12:13:59.129Z,3.78
2023-05-20T12:16:33.273Z,3.10
2023-05-20T12:19:06.386Z,3.40
2023-05-20T12:21:40.806Z,3.33
2023-05-20T12:24:20.824Z,3.22
2023-05-20T12:26:55.506Z,3.20
2023-05-20T12:29:25.479Z,4.07
2023-05-20T12:31:58.108Z,3.30
2023-05-20T12:34:38.208Z,3.70
2023-05-20T12:37:13.466Z,3.53
2023-05-20T12:39:44.473Z,3.03
2023-05-20T12:42:16.148Z,3.83
2023-05-20T12:44:48.332Z,3.40
2023-05-20T12:47:20.943Z,3.33
2023-05-20T12:49:52.506Z,3.75
2023-05-20T12:52:25.018Z,3.40
2023-05-20T12:54:59.716Z,3.38
2023-05-20T12:57:29.800Z,3.97
2023-05-20T13:00:02.830Z,3.53
2023-05-20T13:02:34.180Z,3.80
2023-05-20T13:05:04.183Z,3.88
2023-05-20T13:07:38.199Z,4.47
2023-05-20T13:10:11.649Z,3.53
2023-05-20T13:12:46.248Z,3.42
2023-05-20T13:15:18.746Z,3.58
2023-05-20T13:17:51.300Z,3.38
2023-05-20T13:20:22.937Z,4.18
2023-05-20T13:22:55.451Z,3.53
2023-05-20T13:25:25.292Z,3.55
2023-05-20T13:27:59.715Z,3.67
2023-05-20T13:30:29.600Z,3.45
2023-05-20T13:33:02.158Z,3.42
2023-05-20T13:35:33.589Z,3.58
2023-05-20T13:38:14.492Z,3.85
2023-05-20T13:40:47.503Z,3.75
2023-05-20T13:43:21.918Z,3.58
2023-05-20T13:45:57.634Z,3.20
2023-05-20T13:48:33.564Z,3.15
2023-05-20T13:51:03.427Z,2.97
2023-05-20T13:53:42.752Z,3.10
2023-05-20T13:56:13.870Z,2.80
2023-05-20T13:58:46.080Z,3.55
2023-05-20T14:01:16.960Z,2.88
2023-05-20T14:03:48.632Z,3.00
2023-05-20T14:06:25.077Z,2.85
2023-05-20T14:08:59.583Z,2.70
2023-05-20T14:11:29.451Z,2.72
2023-05-20T14:14:08.528Z,3.00
2023-05-20T14:16:39.787Z,2.78
2023-05-20T14:19:12.098Z,2.80
2023-05-20T14:21:43.436Z,2.88
2023-05-20T14:24:25.143Z,3.47
2023-05-20T14:26:55.052Z,2.90
2023-05-20T14:29:24.955Z,3.35
2023-05-20T14:31:59.278Z,2.92
2023-05-20T14:34:31.048Z,2.92
2023-05-20T14:37:07.762Z,3.20
2023-05-20T14:39:40.445Z,3.50
2023-05-20T14:42:11.306Z,3.40
2023-05-20T14:44:41.985Z,2.95
2023-05-20T14:47:11.916Z,2.97
2023-05-20T14:49:42.461Z,3.25
2023-05-20T14:52:12.350Z,3.08
2023-05-20T14:54:45.608Z,2.90
2023-05-20T14:57:16.156Z,2.75
2023-05-20T14:59:46.440Z,2.63
2023-05-20T15:02:17.205Z,2.53
2023-05-20T15:04:48.190Z,2.40
2023-05-20T15:07:18.463Z,2.45
2023-05-20T15:09:51.277Z,1.90
2023-05-20T15:12:21.153Z,2.20
2023-05-20T15:14:51.005Z,2.03
2023-05-20T15:17:20.985Z,1.98
2023-05-20T15:19:50.909Z,1.85
2023-05-20T15:22:20.953Z,2.10
2023-05-20T15:24:53.451Z,1.77
2023-05-20T15:27:23.432Z,1.88
2023-05-20T15:29:53.319Z,1.98
2023-05-20T15:32:23.405Z,1.77
2023-05-20T15:34:53.307Z,1.65
2023-05-20T15:37:23.952Z,1.80
2023-05-20T15:39:56.674Z,1.95
2023-05-20T15:42:27.165Z,1.98
2023-05-20T15:44:57.209Z,1.85
2023-05-20T15:47:27.100Z,2.10
2023-05-20T15:49:57.656Z,1.95
2023-05-20T15:52:27.566Z,1.88
2023-05-20T15:55:00.134Z,2.10
2023-05-20T15:57:30.888Z,2.28
2023-05-20T16:00:00.882Z,2.17
2023-05-20T16:02:34.712Z,1.80
2023-05-20T16:05:06.882Z,1.90
2023-05-20T16:07:46.195Z,2.33
2023-05-20T16:10:18.800Z,1.50
2023-05-20T16:12:48.762Z,1.90
2023-05-20T16:15:18.683Z,1.92
2023-05-20T16:17:48.555Z,2.03
2023-05-20T16:20:21.268Z,1.67
2023-05-20T16:22:58.183Z,1.80
2023-05-20T16:25:36.114Z,1.95
2023-05-20T16:28:08.350Z,1.73
2023-05-20T16:30:51.663Z,1.67
2023-05-20T16:33:25.508Z,1.42
2023-05-20T16:35:56.239Z,2.28
2023-05-20T16:38:28.816Z,1.42
2023-05-20T16:41:15.974Z,1.80
2023-05-20T16:43:47.173Z,1.58
2023-05-20T16:46:20.308Z,2.03
2023-05-20T16:48:51.780Z,1.90
2023-05-20T16:51:24.275Z,1.90
2023-05-20T16:53:54.140Z,1.77
2023-05-20T16:56:28.541Z,1.95
2023-05-20T16:58:58.553Z,1.83
2023-05-20T17:01:29.171Z,1.83
2023-05-20T17:03:59.278Z,1.85
2023-05-20T17:06:29.210Z,1.90
2023-05-20T17:09:05.071Z,1.85
2023-05-20T17:11:37.487Z,1.90
2023-05-20T17:14:07.365Z,2.00
2023-05-20T17:16:37.442Z,1.98
2023-05-20T17:19:08.176Z,2.00
2023-05-20T17:21:44.460Z,2.00
2023-05-20T17:24:14.480Z,1.92
2023-05-20T17:26:46.960Z,2.13
2023-05-20T17:29:17.619Z,2.13
2023-05-20T17:31:47.738Z,1.90
2023-05-20T17:34:17.711Z,1.92
2023-05-20T17:36:47.637Z,2.10
2023-05-20T17:39:17.586Z,2.13
2023-05-20T17:41:53.161Z,1.95
2023-05-20T17:44:24.589Z,1.92
2023-05-20T17:46:54.457Z,2.30
2023-05-20T17:49:24.297Z,2.33
2023-05-20T17:51:54.198Z,2.47
2023-05-20T17:54:24.097Z,2.22
2023-05-20T17:56:56.623Z,2.50
2023-05-20T17:59:26.629Z,2.30
2023-05-20T18:01:57.086Z,1.90
2023-05-20T18:04:28.129Z,2.70
2023-05-20T18:07:01.045Z,2.17
2023-05-20T18:09:30.914Z,2.45
2023-05-20T18:12:03.333Z,2.75
2023-05-20T18:14:33.176Z,2.35
2023-05-20T18:17:04.645Z,2.00
2023-05-20T18:19:39.329Z,2.55
2023-05-20T18:22:09.188Z,2.03
2023-05-20T18:24:39.091Z,2.30
2023-05-20T18:27:11.662Z,2.30
2023-05-20T18:29:41.545Z,2.60
2023-05-20T18:32:11.707Z,2.25
2023-05-20T18:34:41.626Z,2.35
2023-05-20T18:37:11.506Z,2.25
2023-05-20T18:39:41.365Z,2.30
2023-05-20T18:42:17.739Z,2.42
2023-05-20T18:44:47.590Z,2.70
2023-05-20T18:47:17.582Z,2.58
2023-05-20T18:49:47.855Z,1.98
2023-05-20T18:52:17.740Z,2.20
2023-05-20T18:54:47.590Z,2.45
2023-05-20T18:57:20.084Z,2.58
2023-05-20T18:59:49.970Z,2.45
2023-05-20T19:02:20.113Z,2.30
2023-05-20T19:04:50.013Z,2.30
2023-05-20T19:07:19.890Z,2.53
2023-05-20T19:09:54.052Z,2.60
2023-05-20T19:12:26.680Z,2.20
2023-05-20T19:14:56.634Z,2.17
2023-05-20T19:17:26.755Z,2.55
2023-05-20T19:19:56.643Z,2.38
2023-05-20T19:22:26.812Z,2.67
2023-05-20T19:24:56.667Z,2.30
2023-05-20T19:27:29.161Z,2.47
2023-05-20T19:29:59.072Z,3.05
2023-05-20T19:32:28.937Z,2.92
2023-05-20T19:34:58.915Z,2.65
2023-05-20T19:37:28.716Z,2.38
2023-05-20T19:39:58.574Z,2.72
2023-05-20T19:42:31.061Z,2.70
2023-05-20T19:45:03.241Z,3.03
2023-05-20T19:47:33.320Z,2.75
2023-05-20T19:50:03.219Z,2.88
2023-05-20T19:52:36.560Z,2.80
2023-05-20T19:55:07.111Z,3.20
2023-05-20T19:57:39.603Z,3.13
2023-05-20T20:00:11.549Z,3.05
2023-05-20T20:02:41.772Z,3.10
2023-05-20T20:05:13.361Z,3.03
2023-05-20T20:07:43.386Z,2.92
2023-05-20T20:10:14.004Z,2.72
2023-05-20T20:12:46.448Z,2.92
2023-05-20T20:15:16.306Z,3.00
2023-05-20T20:17:52.158Z,2.97
2023-05-20T20:20:23.712Z,2.90
2023-05-20T20:22:53.624Z,2.60
2023-05-20T20:25:25.879Z,3.13
2023-05-20T20:27:58.324Z,3.25
2023-05-20T20:30:28.169Z,3.22
2023-05-20T20:32:58.028Z,3.22
2023-05-20T20:35:28.727Z,3.00
2023-05-20T20:37:58.582Z,3.38
2023-05-20T20:40:29.426Z,3.05
2023-05-20T20:43:05.077Z,3.08
2023-05-20T20:45:35.104Z,3.10
2023-05-20T20:48:05.739Z,2.83
2023-05-20T20:50:35.987Z,3.10
2023-05-20T20:53:05.958Z,3.45
2023-05-20T20:55:36.006Z,3.10
2023-05-20T20:58:08.595Z,3.10
2023-05-20T21:00:41.827Z,3.42
2023-05-20T21:03:12.164Z,3.50
2023-05-20T21:05:42.061Z,3.40
2023-05-20T21:08:13.425Z,3.70
2023-05-20T21:10:45.709Z,2.83
2023-05-20T21:13:18.166Z,3.28
2023-05-20T21:15:48.042Z,3.63
2023-05-20T21:18:22.013Z,3.58
2023-05-20T21:20:52.838Z,3.30
2023-05-20T21:23:23.520Z,3.10
2023-05-20T21:25:53.491Z,3.28
2023-05-20T21:28:26.088Z,3.10
2023-05-20T21:30:56.779Z,3.33
2023-05-20T21:33:26.689Z,3.17
2023-05-20T21:35:56.555Z,3.38
2023-05-20T21:38:26.508Z,3.72
2023-05-20T21:40:58.305Z,3.40
2023-05-20T21:43:33.280Z,3.63
2023-05-20T21:46:03.196Z,3.60
2023-05-20T21:48:33.133Z,3.10
2023-05-20T21:51:03.012Z,3.45
2023-05-20T21:53:32.883Z,3.25
2023-05-20T21:56:02.749Z,3.40
2023-05-20T21:58:41.084Z,3.30
2023-05-20T22:01:11.970Z,3.35
2023-05-20T22:03:48.749Z,2.70
2023-05-20T22:06:21.605Z,3.63
2023-05-20T22:08:52.020Z,2.70
2023-05-20T22:11:21.942Z,2.90
2023-05-20T22:13:54.878Z,3.00
2023-05-20T22:16:24.969Z,3.10
2023-05-20T22:18:55.848Z,2.85
2023-05-20T22:21:26.468Z,3.20
2023-05-20T22:23:56.518Z,3.10
2023-05-20T22:26:27.006Z,3.08
2023-05-20T22:28:59.442Z,3.00
2023-05-20T22:31:29.396Z,2.88
2023-05-20T22:33:59.770Z,3.10
2023-05-20T22:36:34.370Z,2.72
2023-05-20T22:39:06.863Z,3.17
2023-05-20T22:41:36.765Z,3.10
2023-05-20T22:44:09.430Z,3.25
2023-05-20T22:46:39.522Z,3.55
2023-05-20T22:49:10.458Z,3.20
2023-05-20T22:51:41.308Z,3.83
2023-05-20T22:54:11.126Z,3.30
2023-05-20T22:56:43.267Z,3.40
2023-05-20T22:59:15.995Z,3.75
2023-05-20T23:01:46.293Z,3.60
2023-05-20T23:04:16.347Z,3.42
2023-05-20T23:06:47.014Z,3.50
2023-05-20T23:09:16.849Z,3.58
2023-05-20T23:11:46.709Z,3.50
2023-05-20T23:14:20.240Z,3.60
2023-05-20T23:16:51.138Z,3.42
2023-05-20T23:19:21.097Z,3.75
2023-05-20T23:21:50.958Z,3.80
2023-05-20T23:24:20.855Z,3.67
2023-05-20T23:26:51.397Z,3.47
2023-05-20T23:29:24.007Z,3.33
2023-05-20T23:31:53.874Z,3.65
2023-05-20T23:34:23.732Z,3.78
2023-05-20T23:36:53.668Z,3.67
2023-05-20T23:39:23.713Z,3.95
2023-05-20T23:41:58.187Z,4.00
2023-05-20T23:44:31.426Z,3.78
2023-05-20T23:47:01.731Z,3.58
2023-05-20T23:49:32.318Z,3.75
2023-05-20T23:52:02.346Z,3.58
2023-05-20T23:54:34.455Z,3.60
2023-05-20T23:57:04.319Z,3.83
2023-05-20T23:59:36.767Z,3.90
